AirNav   Air Wisconsin pilot careers
 
 1455 users online  

7S3 Stark's Twin Oaks Airpark
Hillsboro, Oregon, USA

GOING TO HILLSBORO?


FAA INFORMATION EFFECTIVE 29 MARCH 2018

Location

FAA Identifier: 7S3
Lat/Long: 45-25-42.4210N / 122-56-31.7650W
45-25.707017N / 122-56.529417W
45.4284503 / -122.9421569
(estimated)
Elevation: 170 ft. / 52 m (estimated)
Variation: 19E (1985)
From city: 4 miles S of HILLSBORO, OR
Time zone: UTC -7 (UTC -8 during Standard Time)
Zip code: 97123

Airport Operations

Airport use: Open to the public
Activation date: 07/1974
Control tower: no
ARTCC: SEATTLE CENTER
FSS: MC MINNVILLE FLIGHT SERVICE STATION
NOTAMs facility: MMV (NOTAM-D service available)
Attendance: DAWN-DUSK
Pattern altitude: 1200 ft. MSL
Wind indicator: yes
Segmented circle: no
Lights: ACTIVATE LIRL RY 02/20-CTAF; AFT 0000 PPR CALL AMGR 503-628-2817.

Airport Communications

CTAF/UNICOM: 123.05
CLEARANCE DELIVERY: 119.95
WX ASOS at HIO (7 nm N): PHONE 503-640-2984
WX ASOS at UAO (13 nm SE): PHONE 503-678-3011
WX ASOS at MMV (16 nm SW): 135.675 (503-434-9153)
WX ASOS at VUO (17 nm NE): 135.125 (360-696-1280)
WX ASOS at PDX (17 nm NE): PHONE 503-284-6771

Nearby radio navigation aids

VOR radial/distance  VOR name  Freq  Var
UBGr358/4.8NEWBERG VOR/DME117.4021E
BTGr197/24.2BATTLE GROUND VORTAC116.6021E

 
NDB name  Hdg/Dist  Freq  Var  ID
BANKS144/12.935616EPND .--. -. -..
LAKER235/21.333216ELBH .-.. -... ....
TURNO344/34.926617ESLE ... .-.. .

Airport Services

Fuel available: 100LL
Parking: tiedowns
Airframe service: MAJOR
Powerplant service: MINOR
Bottled oxygen: NONE
Bulk oxygen: NONE

Runway Information

Runway 2/20

Dimensions: 2465 x 48 ft. / 751 x 15 m
Surface: asphalt, in good condition
Runway edge lights: low intensity
LIGHT FIXTURES 30' FROM RWY EDGES.
Runway edge markings: RWY 20 NTSD BSC MKGS, RWY 20 NO NUMBERS
RUNWAY 2  RUNWAY 20
Gradient: 1.5%1.5%
Traffic pattern: leftleft
Displaced threshold: 100 ft.no
Markings: NSTD, in fair conditionNSTD, in fair condition
Obstructions: 100 ft. tree, 3078 ft. from runway, 28:1 slope to clear
26:1 BASED ON DISPLACED THRESHOLD
10 ft. trees, 201 ft. from runway, 120 ft. left of centerline
20' TREES AT 175' AND 120' LEFT OF CENTERLINE NO SAFETY AREA

Airport Ownership and Management from official FAA records

Ownership: Privately-owned
Owner: ROBERT C & BETTY STARK
12405 S.W. RIVER RD
HILLSBORO, OR 97123
Phone 503-522-8952
Manager: ROBERT C. STARK
12405 S.W. RIVER RD
HILLSBORO, OR 97123
Phone 503-628-2817

Airport Operational Statistics

Aircraft based on the field: 113
Single engine airplanes: 107
Multi engine airplanes: 1
Helicopters: 4
Ultralights: 1
    
Aircraft operations: avg 61/day *
74% transient general aviation
26% local general aviation
* for 12-month period ending 31 August 2015

Additional Remarks

RUNWAY ENDS NOT VISIBLE FROM EACH OTHER
FOR CD CTC P80 APCH AT 503-493-7545.

Instrument Procedures

There are no published instrument procedures at 7S3.

Some nearby airports with instrument procedures:

KHIO - Portland-Hillsboro Airport (7 nm N)
KUAO - Aurora State Airport (13 nm SE)
KMMV - Mc Minnville Municipal Airport (16 nm SW)
KVUO - Pearson Field Airport (17 nm NE)
KPDX - Portland International Airport (17 nm NE)
 
Loc | Ops | Rwys | IFR | FBO | Links
Com | Nav | Svcs | Stats | Notes

AirNav Hotels Sweepstakes
 
Area around 7S3 (Stark's Twin Oaks Airpark)
 
Road maps at: MapQuest Bing Google
 
Aerial photo
WARNING: Photo may not be current or correct
Aerial photo of 7S3 (Stark's Twin Oaks Airpark)
Photo taken 19-Sep-2011
looking northeast.

Do you have a better or more recent aerial photo of Stark's Twin Oaks Airpark that you would like to share? If so, please send us your photo.

 
Sectional chart

 
Airport diagram
CAUTION: Diagram may not be current
Diagram of 7S3 (Stark's Twin Oaks Airpark)
 
Airport distance calculator
Flying to Stark's Twin Oaks Airpark? Find the distance to fly.

From to 7S3

Sunrise and sunset
Times for 20-Apr-2018
 Local
(UTC-7)
 Zulu
(UTC)
Morning civil twilight05:4712:47
Sunrise06:1913:19
Sunset20:0303:03
Evening civil twilight20:3403:34

Current date and time
Zulu (UTC)  20-Apr-2018 18:42:17
Local (UTC-7)  20-Apr-2018 11:42:17
 
METAR
KHIO 
7nm N 
201753Z 00000KT 10SM BKN110 13/04 A3026 RMK AO2 SLP245 T01280039 10133 20022 58007
KUAO 
13nm SE 
201753Z VRB03KT 10SM BKN120 13/04 A3027 RMK AO2 SLP250 T01330044 10133 20039 58007
KMMV 
16nm SW 
201753Z AUTO 14004KT 10SM OVC110 11/05 A3026 RMK AO2 SLP247 T01110050 10111 20006 58006
KVUO 
17nm NE 
201753Z AUTO 00000KT 10SM BKN120 13/05 A3026 RMK AO2 SLP247 T01330050 10133 20039 58008
KPDX 
17nm NE 
201753Z 00000KT 10SM SCT120 SCT200 13/06 A3026 RMK AO2 SLP248 T01330056 10133 20050 58007
TAF
KHIO 
7nm N 
201725Z 2018/2118 VRB03KT P6SM SCT120 SCT200 FM202000 20005KT P6SM FEW060 BKN100 FM210300 20005KT P6SM BKN040 OVC090 FM210700 19013KT P6SM -RA SCT030 OVC040 FM211100 22008KT P6SM -SHRA BKN050
KUAO 
13nm SE 
201725Z 2018/2118 VRB03KT P6SM SCT120 SCT200 FM202100 21006KT P6SM FEW060 BKN100 FM210300 20006KT P6SM BKN050 OVC090 FM210700 19011KT P6SM -RA SCT030 OVC040 FM211200 20007KT P6SM VCSH BKN050
KPDX 
17nm NE 
201725Z 2018/2118 VRB03KT P6SM SCT120 SCT200 FM202000 26007KT P6SM FEW060 BKN100 FM210300 19012KT P6SM BKN040 OVC070 FM210700 19013KT P6SM -RA SCT030 OVC040 FM211100 25008KT P6SM -SHRA BKN050
NOTAMs
Click for the latest NOTAMs
NOTAMs are issued by the DoD/FAA and will open in a separate window not controlled by AirNav.

 

 
 

FBO, Fuel Providers, and Aircraft Ground Support

  
 Business Name 
 
 Contact 
 
 Services / Description 
 
Fuel Prices
 
Comments
  
Twin Oaks Airpark 503-451-3480
503-522-8952
[web site]
[email]
Airport management, Aviation fuel, Aircraft parking (ramp or tiedown), Hangars, Hangar leasing / sales, Flight training, Aircraft rental, ...

More info about Twin Oaks Airpark
EPIC
100LL
SS $4.54 
 Updated 10-Apr-2018
 
   1 read write
SS=Self service
Update Fuel Prices
 

Would you like to see your business listed on this page?

 If your business provides an interesting product or service to pilots, flight crews, aircraft, or users of the Stark's Twin Oaks Airpark, you should consider listing it here.  To start the listing process, click on the button below
 
Add a business
 

Other Pages about Stark's Twin Oaks Airpark

www.twinoaksairpark.com
 
Update a link
 
Copyright © AirNav, LLC. All rights reserved. Privacy Policy  Contact